• Join FlightAware (Why Join?)
  • Login
  • US Flag 
08:01PM EDT


 

Airport Tracker/Info


-or-


 

Live Flight TrackerFlight Track Log ✈ SWA2975 ✈ 01-Jul-2013 ✈ KSLC - KMDW

Flight Track Log - Related Links

Times and Time Zones

All times are in EDT time to prevent confusion due to time zone crossing. See the SWA2975 flight status page for this flight to view local times or setup timezone preferences in your user account.

Time Position Orientation Groundspeed Altitude Reporting Facility
EDT Latitude Longitude Course Direction KTS MPH feet Rate Location/Type
06:31PM 40.8080 -111.9770 354° North 180 207 4,700  Level FlightAware
06:32PM 40.8350 -111.9800 355° North 201 231 5,600 1,560 Climbing FlightAware
06:32PM 40.8580 -111.9830 354° North 224 258 6,100 1,380 Climbing FlightAware
06:33PM 40.8940 -111.9890 353° North 252 290 6,900 1,800 Climbing FlightAware
06:33PM 40.9240 -111.9920 356° North 250 288 7,900 2,460 Climbing FlightAware
06:34PM 40.9560 -111.9960 355° North 251 289 9,100 2,460 Climbing FlightAware
06:34PM 40.9890 -111.9810 19° North 250 288 10,300 2,340 Climbing FlightAware
06:34PM 40.9970 -111.9700 46° Northeast 253 291 10,700 1,920 Climbing FlightAware
06:35PM 41.0030 -111.9430 74° East 264 304 11,200 1,920 Climbing FlightAware
06:35PM 41.0090 -111.8770 83° East 284 327 12,600 1,980 Climbing FlightAware
06:36PM 41.0130 -111.8040 86° East 308 354 13,900 1,620 Climbing FlightAware
06:37PM 41.0220 -111.7160 82° East 347 399 14,900 1,860 Climbing FlightAware
06:37PM 41.0420 -111.6310 73° East 352 405 16,600 2,100 Climbing FlightAware
06:38PM 41.0620 -111.5420 73° East 370 426 17,900 1,860 Climbing FlightAware
06:39PM 41.0810 -111.4560 74° East 382 440 19,100 900 Climbing FlightAware
06:39PM 41.0980 -111.3820 73° East 382 440 19,100 1,680 Level FlightAware
06:40PM 41.1270 -111.2510 74° East 386 444 21,800 1,500 Climbing FlightAware
06:41PM 41.1480 -111.1580 73° East 386 444 21,800  Level FlightAware
06:42PM 41.1650 -111.0870 72° East 386 444 21,800  Level FlightAware
06:42PM 41.1810 -111.0170 73° East 386 444 21,800  Level FlightAware
06:43PM 41.2020 -110.9230 73° East 386 444 21,800  Level FlightAware
06:44PM 41.2180 -110.8530 73° East 386 444 21,800 4,440 Level FlightAware
06:45PM 41.2028 -110.5544 73° East 417 480 30,300 4,200 Climbing Salt Lake Center
06:46PM 41.2125 -110.4064 85° East 420 483 31,600 1,020 Climbing Salt Lake Center
06:47PM 41.2244 -110.2331 85° East 423 487 32,500 780 Climbing Salt Lake Center
06:48PM 41.2342 -110.0764 85° East 443 510 33,200 1,020 Climbing Salt Lake Center
06:49PM 41.2461 -109.8911 85° East 450 518 34,600 1,320 Climbing Salt Lake Center
06:50PM 41.2558 -109.7353 85° East 445 512 36,000 900 Climbing Salt Lake Center
06:52PM 41.2714 -109.4564 86° East 433 498 37,000 360 Climbing Denver Center
06:53PM 41.2592 -109.2972 96° East 460 529 37,000  Level Denver Center
06:54PM 41.2294 -109.1119 102° East 468 539 37,000  Level Denver Center
06:55PM 41.2083 -108.9514 100° East 468 539 37,000  Level Denver Center
06:56PM 41.1994 -108.7631 94° East 463 533 37,000  Level Denver Center
06:57PM 41.2081 -108.6028 86° East 460 529 37,000  Level Denver Center
06:58PM 41.2256 -108.4178 83° East 455 524 37,000  Level Denver Center
06:59PM 41.2403 -108.2583 83° East 455 524 37,000  Level Denver Center
07:00PM 41.2536 -108.0978 84° East 458 527 37,000  Level Denver Center
07:06PM 41.3360 -107.1140 84° East 447 514 37,000  Level FlightAware
07:07PM 41.3490 -106.9590 84° East 445 512 37,000  Level FlightAware
07:07PM 41.3570 -106.8750 83° East 445 512 37,000  Level FlightAware
07:08PM 41.3670 -106.7670 83° East 445 512 37,000  Level FlightAware
07:09PM 41.3740 -106.6880 83° East 445 512 37,000  Level FlightAware
07:10PM 41.3830 -106.5130 86° East 446 513 37,000  Level FlightAware
07:10PM 41.3910 -106.3950 85° East 446 513 37,000  Level FlightAware
07:11PM 41.4010 -106.2530 85° East 446 513 37,000  Level FlightAware
07:12PM 41.4100 -106.1360 84° East 448 516 37,000  Level FlightAware
07:12PM 41.4160 -106.0420 85° East 450 518 37,000  Level FlightAware
07:13PM 41.4240 -105.9290 85° East 449 517 37,000  Level FlightAware
07:14PM 41.4330 -105.8060 84° East 449 517 37,000  Level FlightAware
07:14PM 41.4400 -105.6960 85° East 448 516 37,000  Level FlightAware
07:15PM 41.4480 -105.5770 85° East 447 514 37,000  Level FlightAware
07:16PM 41.4550 -105.4690 85° East 446 513 37,000  Level FlightAware
07:17PM 41.4630 -105.3500 85° East 444 511 37,000  Level FlightAware
07:17PM 41.4690 -105.2460 86° East 445 512 37,000  Level FlightAware
07:18PM 41.4760 -105.1420 85° East 445 512 37,000  Level FlightAware
07:18PM 41.4820 -105.0410 85° East 445 512 37,000  Level FlightAware
07:19PM 41.4890 -104.9210 86° East 446 513 37,000  Level FlightAware
07:20PM 41.4960 -104.8110 85° East 448 516 37,000  Level FlightAware
07:21PM 41.5030 -104.6950 85° East 449 517 37,000  Level FlightAware
07:21PM 41.5090 -104.5850 86° East 450 518 37,000  Level FlightAware
07:22PM 41.5160 -104.4690 85° East 449 517 37,000  Level FlightAware
07:23PM 41.5220 -104.3580 86° East 449 517 37,000  Level FlightAware
07:23PM 41.5290 -104.2330 86° East 446 513 37,000  Level FlightAware
07:24PM 41.5340 -104.1230 86° East 444 511 37,000  Level FlightAware
07:25PM 41.5390 -104.0360 86° East 444 511 37,000  Level FlightAware
07:25PM 41.5460 -103.9070 86° East 442 509 37,000  Level FlightAware
07:26PM 41.5510 -103.8020 86° East 440 506 37,000  Level FlightAware
07:27PM 41.5560 -103.7000 86° East 440 506 37,000  Level FlightAware
07:27PM 41.5620 -103.5930 86° East 440 506 37,000  Level FlightAware
07:28PM 41.5670 -103.4770 87° East 442 509 37,000  Level FlightAware
07:29PM 41.5730 -103.3590 86° East 442 509 37,000  Level FlightAware
07:29PM 41.5770 -103.2580 87° East 443 510 37,000  Level FlightAware
07:30PM 41.5840 -103.0990 87° East 445 512 37,000  Level FlightAware
07:31PM 41.5890 -103.0060 86° East 445 512 37,000  Level FlightAware
07:32PM 41.5950 -102.8960 86° East 445 512 37,000  Level FlightAware
07:32PM 41.5990 -102.7600 88° East 443 510 37,000  Level FlightAware
07:33PM 41.6040 -102.6410 87° East 443 510 37,000  Level FlightAware
07:34PM 41.6090 -102.5200 87° East 443 510 37,000  Level FlightAware
07:35PM 41.6120 -102.4220 88° East 444 511 37,000  Level FlightAware
07:35PM 41.6150 -102.3430 87° East 444 511 37,000  Level FlightAware
07:36PM 41.6210 -102.1750 87° East 443 510 37,000  Level FlightAware
07:37PM 41.6250 -102.0830 87° East 442 509 37,000  Level FlightAware
07:37PM 41.6290 -101.9710 87° East 442 509 37,000  Level FlightAware
07:38PM 41.6330 -101.8510 87° East 442 509 37,000  Level FlightAware
07:39PM 41.6370 -101.7670 86° East 442 509 37,000  Level FlightAware
07:39PM 41.6400 -101.6520 88° East 441 507 37,000  Level FlightAware
07:40PM 41.6440 -101.5410 87° East 441 507 37,000  Level FlightAware
07:41PM 41.6470 -101.4580 87° East 441 507 37,000  Level FlightAware
07:41PM 41.6510 -101.3740 86° East 441 507 37,000  Level FlightAware
07:42PM 41.6550 -101.2630 87° East 441 507 37,000  Level FlightAware
07:43PM 41.6580 -101.1800 87° East 441 507 37,000  Level FlightAware
07:43PM 41.6610 -101.0960 87° East 441 507 37,000  Level FlightAware
07:44PM 41.6660 -100.9850 87° East 441 507 37,000  Level FlightAware
07:45PM 41.6690 -100.8990 87° East 441 507 37,000  Level FlightAware
07:45PM 41.6730 -100.7920 87° East 441 507 37,000  Level FlightAware
07:46PM 41.6770 -100.7090 86° East 441 507 37,000  Level FlightAware
07:47PM 41.6810 -100.5930 87° East 441 507 37,000  Level FlightAware
07:47PM 41.6840 -100.5100 87° East 441 507 37,000  Level FlightAware
07:48PM 41.6880 -100.4260 86° East 441 507 37,000  Level FlightAware
07:49PM 41.6781 -100.1108 86° East 449 517 37,000  Level Denver Center
07:50PM 41.6803 -99.9500 89° East 450 518 37,000  Level Denver Center
07:51PM 41.6833 -99.7639 89° East 448 516 37,000  Level Denver Center
07:52PM 41.6858 -99.6067 89° East 450 518 37,000  Level Denver Center
07:53PM 41.6883 -99.4406 89° East 447 514 37,000  Level Denver Center
07:54PM 41.6894 -99.2728 89° East 448 516 37,000  Level Denver Center
07:55PM 41.6917 -99.0706 89° East 451 519 37,000  Level Denver Center
07:56PM 41.6925 -98.9019 90° East 450 518 37,000  Level Denver Center
08:02PM 41.6960 -97.9030 90° East 439 505 37,000  Level FlightAware
08:02PM 41.6960 -97.8150 90° East 439 505 37,000  Level FlightAware
08:03PM 41.6960 -97.7040 90° East 439 505 37,000  Level FlightAware
08:04PM 41.6920 -97.5570 92° East 445 512 37,000  Level FlightAware
08:05PM 41.6880 -97.4460 93° East 444 511 37,000  Level FlightAware
08:05PM 41.6840 -97.3260 93° East 444 511 37,000  Level FlightAware
08:06PM 41.6810 -97.2120 92° East 449 517 37,000  Level FlightAware
08:07PM 41.6770 -97.1070 93° East 450 518 37,000  Level FlightAware
08:07PM 41.6720 -96.9720 93° East 450 518 37,000  Level FlightAware
08:08PM 41.6680 -96.8670 93° East 450 518 37,000  Level FlightAware
08:09PM 41.6630 -96.7430 93° East 450 518 37,000  Level FlightAware
08:10PM 41.6580 -96.6200 93° East 451 519 37,000  Level FlightAware
08:10PM 41.6550 -96.5270 92° East 451 519 37,000  Level FlightAware
08:11PM 41.6490 -96.3880 93° East 452 520 37,000  Level FlightAware
08:12PM 41.6440 -96.2710 93° East 453 521 37,000  Level FlightAware
08:12PM 41.6390 -96.1590 93° East 454 522 37,000  Level FlightAware
08:13PM 41.6330 -96.0370 94° East 455 524 37,000  Level FlightAware
08:14PM 41.6290 -95.9480 93° East 456 525 37,000  Level FlightAware
08:14PM 41.6240 -95.8230 93° East 456 525 37,000  Level FlightAware
08:15PM 41.6180 -95.7050 94° East 457 526 37,000  Level FlightAware
08:16PM 41.6120 -95.5730 93° East 458 527 37,000  Level FlightAware
08:17PM 41.6050 -95.4300 94° East 460 529 37,000  Level FlightAware
08:17PM 41.6010 -95.3330 93° East 460 529 37,000  Level FlightAware
08:18PM 41.5960 -95.2170 93° East 460 529 37,000  Level FlightAware
08:19PM 41.5830 -95.0250 95° East 458 527 37,000  Level FlightAware
08:20PM 41.5750 -94.8750 94° East 457 526 37,000  Level FlightAware
08:21PM 41.5700 -94.7730 94° East 456 525 37,000  Level FlightAware
08:21PM 41.5630 -94.6530 94° East 455 524 37,000  Level FlightAware
08:22PM 41.5580 -94.5650 94° East 455 524 37,000  Level FlightAware
08:23PM 41.5540 -94.4810 94° East 455 524 37,000  Level FlightAware
08:23PM 41.5420 -94.3120 95° East 454 522 37,000  Level FlightAware
08:24PM 41.5380 -94.2220 93° East 454 522 37,000  Level FlightAware
08:25PM 41.5290 -94.0820 95° East 456 525 37,000  Level FlightAware
08:25PM 41.5210 -93.9570 95° East 457 526 37,000  Level FlightAware
08:26PM 41.5140 -93.8450 95° East 458 527 37,000  Level FlightAware
08:27PM 41.5060 -93.7340 95° East 37,000  Level FlightAware
08:28PM 41.4930 -93.5240 95° East 459 528 37,000  Level FlightAware
08:29PM 41.4840 -93.4050 96° East 459 528 37,000  Level FlightAware
08:29PM 41.4760 -93.2830 95° East 457 526 37,000  Level FlightAware
08:30PM 41.4680 -93.1710 95° East 455 524 37,000  Level FlightAware
08:31PM 41.4600 -93.0590 95° East 455 524 37,000  Level FlightAware
08:31PM 41.4530 -92.9510 95° East 453 521 37,000  Level FlightAware
08:32PM 41.4450 -92.8430 96° East 452 520 37,000  Level FlightAware
08:33PM 41.4360 -92.7300 96° East 451 519 37,000 -240 Level FlightAware
08:33PM 41.4270 -92.6040 95° East 450 518 36,700 -600 Descending FlightAware
08:34PM 41.4200 -92.5070 95° East 456 525 36,200 -960 Descending FlightAware
08:35PM 41.4090 -92.3740 96° East 457 526 35,400 -1,020 Descending FlightAware
08:35PM 41.4010 -92.2680 96° East 457 526 34,800 -1,020 Descending FlightAware
08:36PM 41.3920 -92.1500 96° East 460 529 34,100 -960 Descending FlightAware
08:37PM 41.3840 -92.0570 97° East 464 534 33,600 -900 Descending FlightAware
08:38PM 41.3740 -91.9300 96° East 466 536 33,000 -720 Descending FlightAware
08:38PM 41.3640 -91.8010 96° East 466 536 32,600 -780 Descending FlightAware
08:39PM 41.3540 -91.6850 97° East 460 529 31,900 -1,020 Descending FlightAware
08:40PM 41.3440 -91.5610 96° East 454 522 31,200 -1,020 Descending FlightAware
08:40PM 41.3350 -91.4560 96° East 446 513 30,500 -1,080 Descending FlightAware
08:41PM 41.3250 -91.3410 97° East 442 509 29,800 -1,080 Descending FlightAware
08:42PM 41.3130 -91.2040 97° East 438 504 28,900 -1,080 Descending FlightAware
08:43PM 41.3020 -91.0770 97° East 429 494 28,100 -1,020 Descending FlightAware
08:43PM 41.2940 -90.9870 97° East 424 488 27,500 -1,260 Descending FlightAware
08:44PM 41.2820 -90.8620 97° East 408 470 26,400 -1,200 Descending FlightAware
08:45PM 41.2730 -90.7620 97° East 405 466 25,800 -1,020 Descending FlightAware
08:46PM 41.2630 -90.6500 97° East 403 464 25,000 -1,020 Descending FlightAware
08:46PM 41.2540 -90.5530 97° East 401 461 24,400 -1,020 Descending FlightAware
08:47PM 41.2440 -90.4430 97° East 395 455 23,600 -1,200 Descending FlightAware
08:48PM 41.2350 -90.3470 97° East 385 443 22,700 -1,620 Descending FlightAware
08:48PM 41.2250 -90.2510 98° East 376 433 21,400 -1,920 Descending FlightAware
08:49PM 41.2160 -90.1510 97° East 365 420 20,000 -1,860 Descending FlightAware
08:50PM 41.2080 -90.0670 97° East 356 410 18,800 -1,860 Descending FlightAware
08:50PM 41.1980 -89.9720 98° East 350 403 17,400 -1,800 Descending FlightAware
08:51PM 41.2020 -89.8560 87° East 338 389 15,800 -1,620 Descending FlightAware
08:52PM 41.2210 -89.7750 73° East 330 380 14,900 -720 Descending FlightAware
08:53PM 41.2390 -89.6960 73° East 327 376 14,900  Level FlightAware
08:53PM 41.2560 -89.6220 73° East 325 374 14,900 -300 Level FlightAware
08:54PM 41.2760 -89.5350 73° East 325 374 14,500 -780 Descending FlightAware
08:55PM 41.2950 -89.4510 73° East 323 372 13,800 -1,020 Descending FlightAware
08:55PM 41.3130 -89.3750 72° East 323 372 13,100 -1,080 Descending FlightAware
08:56PM 41.3300 -89.2990 73° East 319 367 12,400 -1,020 Descending FlightAware
08:57PM 41.3490 -89.2150 73° East 312 359 11,700 -1,020 Descending FlightAware
08:58PM 41.3650 -89.1400 74° East 311 358 11,000 -1,080 Descending FlightAware
08:59PM 41.3880 -89.0390 73° East 288 331 10,000 -960 Descending FlightAware
08:59PM 41.3980 -88.9960 73° East 272 313 9,700 -780 Descending FlightAware
08:59PM 41.4070 -88.9520 75° East 268 308 9,300 -1,020 Descending FlightAware
09:00PM 41.4170 -88.9110 72° East 265 305 8,800 -1,080 Descending FlightAware
09:00PM 41.4280 -88.8620 73° East 262 302 8,300 -1,080 Descending FlightAware
09:01PM 41.4360 -88.8210 75° East 260 299 7,800 -1,020 Descending FlightAware
09:01PM 41.4470 -88.7760 72° East 257 296 7,400 -960 Descending FlightAware
09:02PM 41.4560 -88.7330 74° East 253 291 6,900 -1,020 Descending FlightAware
09:02PM 41.4630 -88.6970 75° East 250 288 6,500 -960 Descending FlightAware
09:03PM 41.4710 -88.6590 74° East 246 283 6,100 -720 Descending FlightAware
09:03PM 41.4790 -88.6210 74° East 242 278 5,900 -240 Descending FlightAware
09:04PM 41.4880 -88.5800 74° East 238 274 5,900  Level FlightAware
09:04PM 41.4910 -88.5620 77° East 237 273 5,900  Level FlightAware
09:04PM 41.4990 -88.5220 75° East 235 270 5,900  Level FlightAware
09:05PM 41.5060 -88.4890 74° East 235 270 5,900  Level FlightAware
09:05PM 41.5140 -88.4520 74° East 237 273 5,900  Level FlightAware
09:06PM 41.5220 -88.4120 75° East 238 274 5,900  Level FlightAware
09:06PM 41.5300 -88.3720 75° East 237 273 5,900 -180 Level FlightAware
09:06PM 41.5350 -88.3450 76° East 237 273 5,800 -660 Descending FlightAware
09:07PM 41.5440 -88.3040 74° East 236 272 5,400 -840 Descending FlightAware
09:07PM 41.5520 -88.2650 75° East 236 272 5,000 -540 Descending FlightAware
09:08PM 41.5600 -88.2260 75° East 233 268 4,900 -120 Descending FlightAware
09:08PM 41.5670 -88.1890 76° East 231 266 4,900  Level FlightAware
09:09PM 41.5750 -88.1480 75° East 232 267 4,900  Level FlightAware
09:09PM 41.5830 -88.1090 75° East 234 269 4,900  Level FlightAware
09:09PM 41.5870 -88.0890 75° East 233 268 4,900  Level FlightAware
09:10PM 41.5950 -88.0480 75° East 233 268 4,900  Level FlightAware
09:10PM 41.5990 -88.0310 73° East 234 269 4,900  Level FlightAware
09:11PM 41.6060 -87.9940 76° East 236 272 4,900  Level FlightAware
09:11PM 41.6130 -87.9760 63° Northeast 234 269 4,900 -600 Level FlightAware
09:11PM 41.6310 -87.9480 49° Northeast 238 274 4,500 -1,140 Descending FlightAware
09:12PM 41.6480 -87.9240 47° Northeast 238 274 4,000 -1,260 Descending FlightAware
09:12PM 41.6730 -87.8940 42° Northeast 223 257 3,400 -1,140 Descending FlightAware
09:12PM 41.6820 -87.8820 45° Northeast 221 254 3,200 -1,200 Descending FlightAware
09:13PM 41.7020 -87.8560 44° Northeast 188 216 2,600 -1,140 Descending FlightAware
09:13PM 41.7170 -87.8380 42° Northeast 167 192 2,200 -1,020 Descending FlightAware
09:14PM 41.7330 -87.8170 44° Northeast 142 163 1,700 -720 Descending FlightAware
09:14PM 41.7460 -87.8020 41° Northeast 125 144 1,500 -600 Descending FlightAware
09:15PM 41.7560 -87.7890 44° Northeast 127 146 1,200 -420 Descending FlightAware
09:15PM 41.7710 -87.7710 42° Northeast 125 144 1,100 -180 Descending FlightAware
09:23PM 41.7833 -87.7500 51° Northeast  Level FlightAware Approximate
09:24PM 41.7860 -87.7524 51° Northeast  Level Estimated